createdAt,value
2018-05-24T00:00:28.874Z,19.43
2018-05-24T00:02:56.558Z,19.38
2018-05-24T00:05:24.234Z,19.39
2018-05-24T00:07:51.962Z,19.38
2018-05-24T00:10:19.582Z,19.35
2018-05-24T00:12:47.420Z,19.32
2018-05-24T00:15:15.037Z,19.32
2018-05-24T00:17:42.732Z,19.31
2018-05-24T00:20:10.876Z,19.27
2018-05-24T00:22:38.460Z,19.26
2018-05-24T00:25:06.116Z,19.31
2018-05-24T00:27:33.958Z,19.21
2018-05-24T00:30:01.633Z,19.21
2018-05-24T00:32:29.301Z,19.23
2018-05-24T00:34:57.144Z,19.19
2018-05-24T00:37:24.786Z,19.28
2018-05-24T00:39:52.466Z,19.30
2018-05-24T00:42:20.647Z,19.26
2018-05-24T00:44:48.223Z,19.22
2018-05-24T00:47:15.873Z,19.17
2018-05-24T00:49:44.072Z,19.16
2018-05-24T00:52:11.633Z,19.14
2018-05-24T00:54:39.366Z,19.04
2018-05-24T00:57:07.115Z,19.02
2018-05-24T00:59:34.766Z,19.04
2018-05-24T01:02:02.471Z,19.09
2018-05-24T01:04:30.121Z,19.04
2018-05-24T01:06:57.782Z,19.06
2018-05-24T01:09:25.404Z,19.08
2018-05-24T01:11:53.591Z,18.96
2018-05-24T01:14:21.160Z,18.76
2018-05-24T01:16:48.779Z,18.71
2018-05-24T01:19:16.548Z,18.49
2018-05-24T01:21:48.221Z,18.12
2018-05-24T01:24:15.946Z,17.88
2018-05-24T01:26:47.258Z,17.88
2018-05-24T01:29:14.900Z,17.92
2018-05-24T01:31:42.636Z,18.12
2018-05-24T01:34:10.210Z,18.10
2018-05-24T01:36:49.586Z,17.92
2018-05-24T01:39:17.160Z,17.85
2018-05-24T01:41:44.827Z,17.86
2018-05-24T01:44:12.547Z,17.70
2018-05-24T01:46:40.176Z,17.56
2018-05-24T01:49:07.866Z,17.55
2018-05-24T01:51:35.720Z,17.46
2018-05-24T01:54:03.336Z,17.36
2018-05-24T01:56:31.007Z,17.45
2018-05-24T01:58:58.729Z,17.47
2018-05-24T02:01:34.613Z,17.48
2018-05-24T02:04:03.096Z,17.68
2018-05-24T02:06:30.669Z,17.75
2018-05-24T02:08:58.329Z,17.80
2018-05-24T02:11:26.029Z,17.97
2018-05-24T02:14:03.945Z,18.11
2018-05-24T02:16:31.592Z,18.07
2018-05-24T02:19:03.935Z,18.12
2018-05-24T02:21:32.048Z,18.17
2018-05-24T02:23:59.648Z,18.14
2018-05-24T02:26:27.304Z,18.13
2018-05-24T02:28:55.457Z,18.20
2018-05-24T02:31:23.060Z,18.24
2018-05-24T02:33:54.356Z,18.27
2018-05-24T02:36:22.197Z,18.31
2018-05-24T02:38:49.923Z,18.33
2018-05-24T02:41:17.580Z,18.31
2018-05-24T02:43:45.393Z,18.28
2018-05-24T02:46:13.074Z,18.39
2018-05-24T02:48:40.731Z,18.39
2018-05-24T02:51:08.425Z,18.40
2018-05-24T02:53:36.007Z,18.37
2018-05-24T02:56:03.704Z,18.36
2018-05-24T02:58:31.571Z,18.43
2018-05-24T03:00:59.209Z,18.44
2018-05-24T03:03:26.856Z,18.46
2018-05-24T03:05:55.031Z,18.52
2018-05-24T03:08:22.589Z,18.49
2018-05-24T03:10:50.275Z,18.42
2018-05-24T03:13:18.947Z,18.38
2018-05-24T03:15:47.583Z,18.42
2018-05-24T03:18:15.277Z,18.45
2018-05-24T03:20:43.343Z,18.48
2018-05-24T03:23:10.863Z,18.42
2018-05-24T03:25:38.422Z,18.48
2018-05-24T03:28:06.559Z,18.50
2018-05-24T03:30:34.136Z,18.38
2018-05-24T03:33:01.757Z,18.32
2018-05-24T03:35:29.873Z,18.30
2018-05-24T03:37:57.543Z,18.26
2018-05-24T03:40:25.156Z,18.25
2018-05-24T03:42:53.342Z,18.26
2018-05-24T03:45:22.937Z,18.31
2018-05-24T03:47:50.556Z,18.49
2018-05-24T03:50:19.078Z,18.71
2018-05-24T03:52:46.724Z,18.87
2018-05-24T03:55:16.445Z,18.92
2018-05-24T03:57:44.464Z,19.06
2018-05-24T04:00:23.752Z,19.07
2018-05-24T04:03:04.674Z,19.11
2018-05-24T04:05:32.255Z,19.21
2018-05-24T04:08:03.919Z,19.30
2018-05-24T04:10:32.177Z,19.41
2018-05-24T04:12:59.747Z,19.49
2018-05-24T04:15:27.511Z,19.52
2018-05-24T04:17:55.079Z,19.51
2018-05-24T04:20:22.712Z,19.50
2018-05-24T04:22:50.600Z,19.57
2018-05-24T04:25:18.254Z,19.56
2018-05-24T04:27:45.917Z,19.48
2018-05-24T04:30:13.838Z,19.43
2018-05-24T04:32:41.453Z,19.58
2018-05-24T04:35:09.104Z,19.75
2018-05-24T04:37:36.971Z,19.75
2018-05-24T04:40:05.431Z,19.82
2018-05-24T04:42:33.112Z,19.91
2018-05-24T04:45:01.265Z,19.98
2018-05-24T04:47:28.821Z,20.06
2018-05-24T04:49:56.855Z,20.10
2018-05-24T04:52:25.059Z,20.11
2018-05-24T04:54:55.883Z,20.19
2018-05-24T04:57:23.588Z,20.27
2018-05-24T04:59:51.872Z,20.27
2018-05-24T05:02:23.364Z,20.37
2018-05-24T05:04:51.066Z,20.38
2018-05-24T05:07:19.055Z,20.38
2018-05-24T05:09:46.740Z,20.37
2018-05-24T05:12:14.405Z,20.45
2018-05-24T05:14:42.198Z,20.47
2018-05-24T05:17:09.747Z,20.59
2018-05-24T05:19:37.584Z,20.77
2018-05-24T05:22:05.274Z,20.94
2018-05-24T05:24:32.910Z,21.03
2018-05-24T05:27:00.616Z,21.14
2018-05-24T05:29:28.728Z,21.24
2018-05-24T05:31:56.299Z,21.37
2018-05-24T05:34:23.959Z,21.49
2018-05-24T05:36:51.991Z,21.71
2018-05-24T05:39:19.678Z,21.93
2018-05-24T05:41:47.331Z,21.89
2018-05-24T05:44:15.490Z,22.15
2018-05-24T05:46:43.202Z,22.30
2018-05-24T05:49:10.829Z,22.50
2018-05-24T05:51:38.494Z,22.55
2018-05-24T05:54:06.076Z,22.77
2018-05-24T05:56:33.767Z,22.77
2018-05-24T05:59:01.874Z,22.56
2018-05-24T06:01:29.595Z,22.60
2018-05-24T06:03:57.130Z,22.57
2018-05-24T06:06:25.219Z,22.16
2018-05-24T06:08:52.823Z,22.30
2018-05-24T06:11:20.529Z,22.06
2018-05-24T06:13:48.164Z,22.10
2018-05-24T06:16:15.831Z,22.37
2018-05-24T06:18:43.527Z,22.68
2018-05-24T06:21:11.174Z,22.69
2018-05-24T06:23:38.759Z,22.86
2018-05-24T06:26:06.650Z,22.52
2018-05-24T06:28:34.344Z,22.75
2018-05-24T06:31:01.891Z,22.84
2018-05-24T06:33:29.703Z,22.99
2018-05-24T06:35:57.360Z,22.98
2018-05-24T06:38:25.073Z,22.46
2018-05-24T06:40:53.576Z,22.31
2018-05-24T06:43:21.276Z,22.26
2018-05-24T06:45:48.828Z,22.25
2018-05-24T06:48:16.548Z,22.33
2018-05-24T06:50:44.153Z,22.30
2018-05-24T06:53:11.861Z,22.22
2018-05-24T06:55:39.539Z,22.13
2018-05-24T06:58:07.156Z,22.17
2018-05-24T07:00:34.838Z,22.16
2018-05-24T07:03:02.513Z,22.05
2018-05-24T07:05:30.139Z,22.11
2018-05-24T07:07:57.819Z,22.02
2018-05-24T07:10:25.607Z,22.07
2018-05-24T07:12:53.284Z,22.06
2018-05-24T07:15:21.952Z,21.94
2018-05-24T07:17:49.845Z,21.92
2018-05-24T07:20:17.514Z,21.89
2018-05-24T07:22:45.162Z,21.92
2018-05-24T07:25:12.864Z,21.66
2018-05-24T07:27:40.540Z,21.96
2018-05-24T07:30:08.225Z,22.21
2018-05-24T07:32:36.306Z,22.33
2018-05-24T07:35:03.942Z,22.48
2018-05-24T07:37:31.751Z,22.50
2018-05-24T07:39:59.987Z,22.79
2018-05-24T07:42:27.820Z,23.04
2018-05-24T07:44:55.474Z,23.18
2018-05-24T07:47:26.546Z,23.44
2018-05-24T07:49:54.199Z,23.61
2018-05-24T07:52:21.868Z,23.77
2018-05-24T07:54:49.707Z,24.04
2018-05-24T07:57:17.344Z,24.29
2018-05-24T07:59:45.648Z,24.34
2018-05-24T08:02:13.811Z,24.77
2018-05-24T08:04:44.026Z,24.93
2018-05-24T08:07:11.690Z,24.91
2018-05-24T08:09:39.505Z,25.06
2018-05-24T08:12:07.372Z,24.92
2018-05-24T08:14:35.038Z,25.14
2018-05-24T08:17:02.833Z,25.23
2018-05-24T08:19:30.426Z,25.10
2018-05-24T08:21:58.083Z,25.03
2018-05-24T08:24:25.743Z,24.76
2018-05-24T08:26:53.352Z,24.76
2018-05-24T08:29:21.016Z,24.61
2018-05-24T08:31:49.769Z,24.62
2018-05-24T08:34:17.759Z,24.70
2018-05-24T08:36:45.463Z,24.66
2018-05-24T08:39:13.137Z,24.52
2018-05-24T08:41:40.830Z,24.71
2018-05-24T08:44:08.482Z,24.87
2018-05-24T08:46:36.449Z,25.14
2018-05-24T08:49:04.237Z,25.54
2018-05-24T08:51:31.914Z,25.98
2018-05-24T08:54:00.042Z,25.56
2018-05-24T08:56:27.861Z,25.56
2018-05-24T08:58:58.935Z,25.55
2018-05-24T09:01:30.062Z,25.53
2018-05-24T09:03:58.054Z,25.52
2018-05-24T09:06:25.754Z,25.63
2018-05-24T09:08:53.511Z,25.66
2018-05-24T09:11:21.095Z,26.36
2018-05-24T09:13:48.728Z,26.53
2018-05-24T09:16:16.624Z,26.73
2018-05-24T09:18:44.302Z,27.01
2018-05-24T09:21:13.943Z,26.78
2018-05-24T09:23:41.643Z,26.50
2018-05-24T09:26:09.269Z,26.36
2018-05-24T09:28:36.966Z,26.06
2018-05-24T09:31:05.091Z,26.37
2018-05-24T09:33:33.757Z,26.46
2018-05-24T09:36:01.377Z,26.40
2018-05-24T09:38:34.833Z,26.50
2018-05-24T09:41:13.535Z,26.26
2018-05-24T09:43:41.168Z,26.05
2018-05-24T09:46:08.803Z,26.05
2018-05-24T09:48:36.414Z,25.88
2018-05-24T09:51:04.283Z,25.34
2018-05-24T09:53:31.962Z,25.20
2018-05-24T09:55:59.629Z,25.49
2018-05-24T09:58:27.795Z,25.66
2018-05-24T10:00:58.624Z,26.21
2018-05-24T10:03:26.296Z,26.77
2018-05-24T10:05:54.415Z,26.65
2018-05-24T10:08:22.007Z,27.05
2018-05-24T10:10:49.687Z,27.40
2018-05-24T10:13:17.344Z,26.59
2018-05-24T10:15:44.968Z,26.86
2018-05-24T10:18:12.641Z,26.89
2018-05-24T10:20:40.358Z,26.14
2018-05-24T10:23:07.977Z,26.50
2018-05-24T10:25:35.663Z,27.20
2018-05-24T10:28:03.318Z,27.93
2018-05-24T10:30:30.925Z,28.42
2018-05-24T10:32:58.583Z,28.33
2018-05-24T10:35:26.519Z,27.36
2018-05-24T10:37:54.105Z,27.78
2018-05-24T10:40:21.808Z,27.54
2018-05-24T10:42:49.500Z,27.40
2018-05-24T10:45:17.121Z,27.32
2018-05-24T10:47:44.736Z,27.82
2018-05-24T10:50:12.563Z,27.60
2018-05-24T10:52:40.328Z,27.05
2018-05-24T10:55:07.901Z,27.60
2018-05-24T10:57:36.092Z,27.87
2018-05-24T11:00:03.822Z,27.91
2018-05-24T11:02:31.565Z,27.96
2018-05-24T11:05:00.397Z,28.04
2018-05-24T11:07:28.108Z,27.68
2018-05-24T11:09:55.772Z,27.22
2018-05-24T11:12:23.508Z,25.98
2018-05-24T11:14:51.107Z,26.95
2018-05-24T11:17:18.700Z,27.69
2018-05-24T11:19:46.561Z,28.23
2018-05-24T11:22:14.202Z,28.63
2018-05-24T11:24:41.864Z,28.84
2018-05-24T11:27:09.733Z,27.93
2018-05-24T11:29:37.407Z,27.42
2018-05-24T11:32:05.166Z,27.06
2018-05-24T11:34:32.770Z,27.46
2018-05-24T11:37:00.461Z,27.80
2018-05-24T11:39:28.046Z,27.94
2018-05-24T11:41:56.232Z,27.33
2018-05-24T11:44:24.177Z,27.43
2018-05-24T11:46:51.849Z,27.68
2018-05-24T11:49:20.019Z,28.08
2018-05-24T11:51:47.586Z,28.10
2018-05-24T11:54:15.239Z,28.18
2018-05-24T11:56:42.970Z,28.24
2018-05-24T11:59:10.571Z,28.36
2018-05-24T12:01:38.196Z,28.61
2018-05-24T12:04:05.894Z,28.12
2018-05-24T12:06:33.532Z,28.40
2018-05-24T12:09:01.195Z,27.88
2018-05-24T12:11:29.019Z,27.57
2018-05-24T12:13:56.713Z,27.38
2018-05-24T12:16:24.366Z,27.36
2018-05-24T12:18:52.088Z,27.68
2018-05-24T12:21:19.727Z,27.93
2018-05-24T12:23:47.388Z,27.93
2018-05-24T12:26:15.269Z,27.90
2018-05-24T12:28:42.903Z,27.45
2018-05-24T12:31:10.581Z,27.85
2018-05-24T12:33:38.701Z,27.66
2018-05-24T12:36:06.268Z,27.59
2018-05-24T12:38:33.915Z,28.19
2018-05-24T12:41:01.742Z,27.88
2018-05-24T12:43:29.460Z,27.61
2018-05-24T12:45:57.115Z,27.25
2018-05-24T12:48:24.821Z,27.24
2018-05-24T12:50:52.384Z,27.61
2018-05-24T12:53:20.061Z,27.84
2018-05-24T12:55:48.237Z,27.66
2018-05-24T12:58:15.818Z,27.74
2018-05-24T13:00:43.429Z,27.77
2018-05-24T13:03:11.915Z,27.57
2018-05-24T13:05:39.607Z,27.39
2018-05-24T13:08:07.375Z,27.28
2018-05-24T13:10:35.397Z,27.24
2018-05-24T13:13:04.029Z,27.25
2018-05-24T13:15:31.719Z,27.29
2018-05-24T13:17:59.519Z,27.26
2018-05-24T13:20:27.248Z,27.12
2018-05-24T13:22:54.898Z,26.96
2018-05-24T13:25:22.512Z,26.57
2018-05-24T13:27:50.170Z,26.52
2018-05-24T13:30:17.847Z,26.27
2018-05-24T13:32:45.988Z,26.18
2018-05-24T13:35:13.524Z,26.01
2018-05-24T13:37:41.216Z,25.82
2018-05-24T13:40:08.883Z,25.60
2018-05-24T13:42:36.531Z,25.52
2018-05-24T13:45:04.579Z,25.52
2018-05-24T13:47:32.455Z,25.51
2018-05-24T13:50:00.093Z,25.50
2018-05-24T13:52:27.775Z,25.37
2018-05-24T13:54:55.633Z,25.25
2018-05-24T13:57:35.024Z,25.15
2018-05-24T14:00:03.132Z,25.10
2018-05-24T14:02:30.703Z,25.05
2018-05-24T14:04:58.391Z,25.02
2018-05-24T14:07:26.538Z,24.36
2018-05-24T14:09:54.137Z,24.35
2018-05-24T14:12:21.743Z,24.31
2018-05-24T14:14:49.901Z,24.19
2018-05-24T14:17:17.455Z,24.16
2018-05-24T14:19:45.999Z,24.11
2018-05-24T14:22:16.485Z,24.15
2018-05-24T14:24:45.710Z,24.22
2018-05-24T14:27:16.016Z,24.01
2018-05-24T14:29:43.780Z,23.57
2018-05-24T14:32:11.436Z,23.18
2018-05-24T14:34:39.004Z,22.80
2018-05-24T14:37:07.129Z,22.43
2018-05-24T14:39:34.748Z,22.17
2018-05-24T14:42:02.384Z,22.05
2018-05-24T14:44:30.443Z,22.07
2018-05-24T14:46:58.070Z,22.15
2018-05-24T14:49:25.876Z,22.32
2018-05-24T14:51:53.630Z,22.45
2018-05-24T14:54:21.328Z,22.53
2018-05-24T14:56:48.967Z,22.67
2018-05-24T14:59:16.605Z,22.84
2018-05-24T15:01:44.380Z,23.01
2018-05-24T15:04:12.520Z,23.17
2018-05-24T15:06:40.301Z,23.36
2018-05-24T15:09:07.888Z,23.42
2018-05-24T15:11:35.733Z,23.50
2018-05-24T15:14:03.529Z,23.56
2018-05-24T15:16:31.103Z,23.47
2018-05-24T15:18:59.776Z,23.42
2018-05-24T15:21:27.388Z,22.88
2018-05-24T15:23:55.060Z,22.87
2018-05-24T15:26:23.218Z,22.86
2018-05-24T15:28:50.777Z,22.62
2018-05-24T15:31:18.455Z,22.12
2018-05-24T15:33:46.686Z,22.37
2018-05-24T15:36:14.546Z,22.30
2018-05-24T15:38:42.270Z,22.13
2018-05-24T15:41:10.108Z,21.94
2018-05-24T15:43:37.900Z,21.82
2018-05-24T15:46:05.650Z,21.71
2018-05-24T15:48:33.316Z,21.72
2018-05-24T15:51:00.955Z,21.67
2018-05-24T15:53:28.763Z,21.46
2018-05-24T15:55:56.768Z,21.46
2018-05-24T15:58:24.305Z,21.44
2018-05-24T16:00:52.108Z,21.28
2018-05-24T16:03:19.948Z,21.21
2018-05-24T16:05:47.604Z,21.09
2018-05-24T16:08:15.706Z,21.10
2018-05-24T16:10:43.873Z,20.94
2018-05-24T16:13:11.445Z,20.85
2018-05-24T16:15:39.090Z,20.79
2018-05-24T16:18:06.771Z,20.70
2018-05-24T16:20:34.400Z,20.73
2018-05-24T16:23:02.108Z,20.69
2018-05-24T16:25:29.784Z,20.68
2018-05-24T16:27:57.387Z,20.75
2018-05-24T16:30:25.051Z,20.78
2018-05-24T16:32:52.993Z,20.86
2018-05-24T16:35:20.646Z,20.88
2018-05-24T16:37:48.319Z,20.98
2018-05-24T16:40:16.195Z,21.00
2018-05-24T16:42:43.852Z,21.03
2018-05-24T16:45:12.456Z,21.09
2018-05-24T16:47:40.235Z,21.17
2018-05-24T16:50:07.864Z,21.18
2018-05-24T16:52:35.599Z,21.11
2018-05-24T16:55:03.260Z,20.92
2018-05-24T16:57:30.831Z,20.97
2018-05-24T16:59:58.519Z,21.04
2018-05-24T17:02:26.523Z,21.07
2018-05-24T17:04:54.220Z,21.00
2018-05-24T17:07:21.908Z,20.96
2018-05-24T17:09:49.738Z,20.88
2018-05-24T17:12:17.386Z,20.77
2018-05-24T17:14:45.125Z,20.63
2018-05-24T17:17:12.928Z,20.51
2018-05-24T17:19:40.680Z,20.45
2018-05-24T17:22:08.258Z,20.38
2018-05-24T17:24:35.927Z,20.35
2018-05-24T17:27:03.583Z,20.26
2018-05-24T17:29:31.269Z,20.23
2018-05-24T17:31:59.050Z,20.15
2018-05-24T17:34:26.812Z,20.03
2018-05-24T17:36:54.400Z,19.99
2018-05-24T17:39:22.085Z,20.00
2018-05-24T17:41:49.723Z,19.97
2018-05-24T17:44:17.400Z,19.96
2018-05-24T17:46:45.220Z,19.91
2018-05-24T17:49:12.938Z,19.87
2018-05-24T17:51:40.578Z,19.83
2018-05-24T17:54:08.544Z,19.76
2018-05-24T17:56:36.114Z,19.74
2018-05-24T17:59:03.743Z,19.72
2018-05-24T18:01:31.448Z,19.69
2018-05-24T18:03:59.036Z,19.65
2018-05-24T18:06:26.720Z,19.64
2018-05-24T18:08:54.440Z,19.61
2018-05-24T18:11:22.033Z,19.59
2018-05-24T18:13:49.712Z,19.55
2018-05-24T18:16:17.649Z,19.52
2018-05-24T18:18:45.184Z,19.48
2018-05-24T18:21:12.921Z,19.41
2018-05-24T18:23:40.981Z,19.34
2018-05-24T18:26:09.631Z,19.30
2018-05-24T18:28:37.272Z,19.28
2018-05-24T18:31:05.297Z,19.26
2018-05-24T18:33:32.847Z,19.23
2018-05-24T18:36:00.516Z,19.24
2018-05-24T18:38:28.647Z,19.23
2018-05-24T18:40:56.211Z,19.18
2018-05-24T18:43:23.859Z,19.12
2018-05-24T18:45:51.969Z,19.10
2018-05-24T18:48:19.592Z,19.10
2018-05-24T18:50:47.274Z,19.07
2018-05-24T18:53:15.404Z,19.04
2018-05-24T18:55:43.053Z,19.01
2018-05-24T18:58:10.631Z,18.99
2018-05-24T19:00:38.373Z,19.01
2018-05-24T19:03:05.982Z,18.98
2018-05-24T19:05:33.661Z,18.98
2018-05-24T19:08:01.336Z,18.97
2018-05-24T19:10:28.939Z,18.98
2018-05-24T19:12:56.644Z,18.99
2018-05-24T19:15:25.195Z,19.00
2018-05-24T19:17:52.793Z,19.04
2018-05-24T19:20:20.360Z,19.03
2018-05-24T19:22:48.085Z,19.12
2018-05-24T19:25:15.740Z,19.21
2018-05-24T19:27:43.427Z,19.26
2018-05-24T19:30:11.291Z,19.28
2018-05-24T19:32:38.850Z,19.26
2018-05-24T19:35:06.635Z,19.26
2018-05-24T19:37:34.232Z,19.20
2018-05-24T19:40:01.886Z,19.14
2018-05-24T19:42:29.505Z,19.09
2018-05-24T19:44:57.218Z,19.04
2018-05-24T19:47:24.839Z,18.98
2018-05-24T19:49:52.456Z,18.99
2018-05-24T19:52:20.191Z,18.96
2018-05-24T19:54:47.809Z,19.02
2018-05-24T19:57:15.485Z,19.06
2018-05-24T19:59:43.640Z,19.09
2018-05-24T20:02:11.199Z,19.01
2018-05-24T20:04:38.852Z,18.98
2018-05-24T20:07:06.923Z,18.88
2018-05-24T20:09:34.584Z,18.86
2018-05-24T20:12:02.261Z,18.92
2018-05-24T20:14:30.400Z,18.99
2018-05-24T20:16:58.008Z,19.03
2018-05-24T20:19:25.612Z,19.00
2018-05-24T20:21:53.415Z,18.94
2018-05-24T20:24:20.967Z,19.01
2018-05-24T20:26:48.608Z,19.02
2018-05-24T20:29:16.288Z,19.06
2018-05-24T20:31:43.915Z,19.05
2018-05-24T20:34:11.724Z,19.03
2018-05-24T20:36:39.796Z,19.02
2018-05-24T20:39:07.491Z,19.01
2018-05-24T20:41:35.523Z,19.02
2018-05-24T20:44:03.922Z,19.03
2018-05-24T20:46:31.494Z,19.04
2018-05-24T20:48:59.276Z,19.06
2018-05-24T20:51:27.038Z,19.04
2018-05-24T20:53:54.806Z,19.01
2018-05-24T20:56:22.658Z,18.98
2018-05-24T20:58:50.498Z,18.97
2018-05-24T21:01:18.144Z,18.95
2018-05-24T21:03:45.938Z,18.90
2018-05-24T21:06:13.587Z,18.88
2018-05-24T21:08:41.205Z,18.85
2018-05-24T21:11:08.846Z,18.83
2018-05-24T21:13:36.718Z,18.82
2018-05-24T21:16:04.411Z,18.81
2018-05-24T21:18:32.023Z,18.82
2018-05-24T21:20:59.704Z,18.79
2018-05-24T21:23:27.327Z,18.77
2018-05-24T21:25:55.008Z,18.75
2018-05-24T21:28:22.648Z,18.72
2018-05-24T21:30:50.275Z,18.71
2018-05-24T21:33:17.872Z,18.66
2018-05-24T21:35:45.591Z,18.62
2018-05-24T21:38:13.247Z,18.56
2018-05-24T21:40:40.887Z,18.50
2018-05-24T21:43:08.561Z,18.48
2018-05-24T21:45:36.184Z,18.45
2018-05-24T21:48:03.856Z,18.44
2018-05-24T21:50:31.665Z,18.40
2018-05-24T21:52:59.234Z,18.36
2018-05-24T21:55:26.814Z,18.34
2018-05-24T21:57:54.885Z,18.32
2018-05-24T22:00:22.555Z,18.27
2018-05-24T22:02:50.262Z,18.24
2018-05-24T22:05:17.945Z,18.21
2018-05-24T22:07:45.526Z,18.19
2018-05-24T22:10:13.239Z,18.19
2018-05-24T22:12:40.927Z,18.20
2018-05-24T22:15:08.511Z,18.18
2018-05-24T22:17:36.183Z,18.17
2018-05-24T22:20:04.335Z,18.14
2018-05-24T22:22:31.893Z,18.14
2018-05-24T22:24:59.598Z,18.13
2018-05-24T22:27:27.280Z,18.12
2018-05-24T22:29:54.890Z,18.14
2018-05-24T22:32:22.538Z,18.11
2018-05-24T22:34:50.240Z,18.12
2018-05-24T22:37:17.859Z,18.10
2018-05-24T22:39:45.528Z,18.09
2018-05-24T22:42:13.231Z,18.11
2018-05-24T22:44:40.839Z,18.09
2018-05-24T22:47:08.520Z,18.04
2018-05-24T22:49:36.640Z,18.01
2018-05-24T22:52:04.243Z,17.97
2018-05-24T22:54:31.919Z,17.96
2018-05-24T22:57:00.057Z,17.91
2018-05-24T22:59:27.636Z,17.84
2018-05-24T23:01:55.264Z,17.82
2018-05-24T23:04:22.945Z,17.80
2018-05-24T23:06:50.533Z,17.76
2018-05-24T23:09:18.101Z,17.74
2018-05-24T23:11:45.724Z,17.69
2018-05-24T23:14:13.365Z,17.63
2018-05-24T23:16:40.976Z,17.60
2018-05-24T23:19:08.749Z,17.57
2018-05-24T23:21:36.371Z,17.53
2018-05-24T23:24:03.989Z,17.50
2018-05-24T23:26:31.676Z,17.48
2018-05-24T23:28:59.332Z,17.47
2018-05-24T23:31:26.940Z,17.45
2018-05-24T23:33:54.662Z,17.43
2018-05-24T23:36:22.290Z,17.42
2018-05-24T23:38:49.936Z,17.43
2018-05-24T23:41:18.101Z,17.42
2018-05-24T23:43:45.659Z,17.42
2018-05-24T23:46:13.324Z,17.38
2018-05-24T23:48:41.493Z,17.41
2018-05-24T23:51:09.071Z,17.41
2018-05-24T23:53:36.713Z,17.38
2018-05-24T23:56:04.605Z,17.35
2018-05-24T23:58:32.236Z,17.34
